Time;durP1;ratioP1;P1;durP2;ratioP2;P2;SDS_P1;SDS_P2;PMS_P1;PMS_P2;Temp;Humidity;BMP_temperature;BMP_pressure;BME280_temperature;BME280_humidity;BME280_pressure;Samples;Min_cycle;Max_cycle;Signal;HPM_P1;HPM_P2
2021/12/13 00:02:06;;;;;;;244.52;53.33;;;9.90;99.90;;;;;;4903792;29;20043;-94
2021/12/13 00:04:38;;;;;;;223.82;53.20;;;9.90;99.90;;;;;;4903510;29;20052;-95
2021/12/13 00:07:20;;;;;;;222.07;53.42;;;9.90;99.90;;;;;;4916171;29;20040;-95
2021/12/13 00:09:50;;;;;;;213.98;52.63;;;9.90;99.90;;;;;;4920642;29;20493;-95
2021/12/13 00:12:28;;;;;;;206.98;49.60;;;9.90;99.90;;;;;;4935025;29;20044;-95
2021/12/13 00:14:56;;;;;;;208.07;52.30;;;9.90;99.90;;;;;;4918085;29;20059;-94
2021/12/13 00:17:26;;;;;;;165.57;47.30;;;9.90;99.90;;;;;;4920658;29;20040;-96
2021/12/13 00:20:03;;;;;;;166.70;46.63;;;9.90;99.90;;;;;;4922904;29;20507;-95
2021/12/13 00:22:36;;;;;;;170.90;45.97;;;9.90;99.90;;;;;;4904668;29;20047;-94
2021/12/13 00:25:13;;;;;;;177.75;43.40;;;9.90;99.90;;;;;;4934103;29;20046;-95
2021/12/13 00:27:46;;;;;;;162.70;43.47;;;9.90;99.90;;;;;;4921848;29;20453;-96
2021/12/13 00:30:40;;;;;;;181.57;45.08;;;9.90;99.90;;;;;;4906668;29;20126;-95
2021/12/13 00:33:20;;;;;;;156.50;42.72;;;9.90;99.90;;;;;;4908672;29;20369;-95
2021/12/13 00:35:50;;;;;;;141.05;41.70;;;9.80;99.90;;;;;;4915911;29;20063;-94
2021/12/13 00:38:20;;;;;;;133.52;41.45;;;9.80;99.90;;;;;;4905310;29;20429;-94
2021/12/13 00:40:54;;;;;;;162.52;41.42;;;9.80;99.90;;;;;;4915853;29;20121;-94
2021/12/13 00:43:34;;;;;;;172.50;45.85;;;9.80;99.90;;;;;;4922201;29;20990;-94
2021/12/13 00:46:06;;;;;;;183.07;44.55;;;9.90;99.90;;;;;;4920897;29;20043;-94
2021/12/13 00:48:35;;;;;;;143.53;40.17;;;9.80;99.90;;;;;;4922639;29;20061;-95
2021/12/13 00:51:04;;;;;;;165.13;43.85;;;9.90;99.90;;;;;;4921354;29;20040;-95
2021/12/13 00:53:38;;;;;;;130.00;40.72;;;9.80;99.90;;;;;;4918153;29;20039;-94
2021/12/13 00:57:02;;;;;;;120.70;35.28;;;9.80;99.90;;;;;;4919628;29;20173;-95
2021/12/13 00:59:30;;;;;;;161.05;45.47;;;9.80;99.90;;;;;;4857378;29;20076;-95
2021/12/13 01:02:07;;;;;;;156.27;41.85;;;9.80;99.90;;;;;;4867935;29;20048;-95
2021/12/13 01:05:09;;;;;;;160.77;42.15;;;9.90;99.90;;;;;;4898328;29;20052;-94
2021/12/13 01:08:12;;;;;;;157.75;43.15;;;9.90;99.90;;;;;;4914753;29;20052;-94
2021/12/13 01:10:53;;;;;;;144.40;41.83;;;9.90;99.90;;;;;;4923747;29;20486;-94
2021/12/13 01:13:40;;;;;;;155.60;42.33;;;9.90;99.90;;;;;;4914921;29;20083;-94
2021/12/13 01:16:36;;;;;;;143.68;42.95;;;9.90;99.90;;;;;;4906811;29;20136;-95
2021/12/13 01:19:49;;;;;;;141.85;44.22;;;9.90;99.90;;;;;;4921692;29;20055;-94
2021/12/13 01:27:41;;;;;;;155.02;41.95;;;9.90;99.90;;;;;;4916374;29;20496;-94
2021/12/13 01:30:17;;;;;;;151.30;41.30;;;9.80;99.90;;;;;;4909328;29;20058;-95
2021/12/13 01:32:47;;;;;;;154.88;41.92;;;9.90;99.90;;;;;;4921930;29;20397;-95
2021/12/13 01:35:18;;;;;;;156.15;43.88;;;10.30;99.90;;;;;;4908343;29;20043;-92
2021/12/13 01:37:51;;;;;;;138.50;40.60;;;9.80;99.90;;;;;;4908457;29;20397;-94
2021/12/13 01:40:21;;;;;;;115.20;35.88;;;9.80;99.90;;;;;;4902782;29;20035;-94
2021/12/13 01:43:01;;;;;;;116.60;36.85;;;9.90;99.90;;;;;;4905217;29;20409;-93
2021/12/13 01:45:31;;;;;;;129.68;36.00;;;9.90;99.90;;;;;;4904799;29;20042;-93
2021/12/13 01:47:59;;;;;;;117.65;33.45;;;9.90;99.90;;;;;;4923951;29;20103;-95
2021/12/13 01:50:31;;;;;;;105.97;34.05;;;9.90;99.90;;;;;;4920827;29;20043;-94
2021/12/13 01:53:00;;;;;;;118.88;34.78;;;9.80;99.90;;;;;;4924250;29;20044;-94
2021/12/13 01:55:35;;;;;;;114.82;32.47;;;9.80;99.90;;;;;;4924531;29;20036;-93
2021/12/13 02:01:09;;;;;;;116.88;33.80;;;9.90;99.90;;;;;;4930715;29;20047;-93
2021/12/13 02:04:04;;;;;;;103.55;31.77;;;9.90;99.90;;;;;;4908941;29;20149;-95
2021/12/13 02:06:35;;;;;;;88.30;31.95;;;9.80;99.90;;;;;;4906672;29;20036;-93
2021/12/13 02:09:10;;;;;;;81.68;27.15;;;9.90;99.90;;;;;;4907214;29;20374;-94
2021/12/13 02:11:36;;;;;;;87.20;29.50;;;9.90;99.90;;;;;;4903693;29;20043;-94
2021/12/13 02:14:13;;;;;;;91.85;32.63;;;9.90;99.90;;;;;;4906519;29;20082;-94
2021/12/13 02:17:10;;;;;;;86.50;30.15;;;9.90;99.90;;;;;;4926663;29;20044;-92
2021/12/13 02:19:51;;;;;;;86.00;29.48;;;9.90;99.90;;;;;;4904519;29;20091;-93
2021/12/13 02:22:19;;;;;;;92.25;29.85;;;9.90;99.90;;;;;;4906862;29;20055;-94
2021/12/13 02:24:47;;;;;;;96.57;32.67;;;9.90;99.90;;;;;;4909338;29;20053;-93
2021/12/13 02:27:13;;;;;;;65.43;25.92;;;9.90;99.90;;;;;;4900370;29;20553;-94
2021/12/13 02:29:42;;;;;;;67.75;26.33;;;9.90;99.90;;;;;;4902294;29;20107;-95
2021/12/13 02:32:09;;;;;;;65.60;24.92;;;9.90;99.90;;;;;;4907192;29;20040;-95
2021/12/13 02:34:42;;;;;;;72.65;26.55;;;9.90;99.90;;;;;;4902271;29;20128;-95
2021/12/13 02:37:09;;;;;;;65.30;23.80;;;9.90;99.90;;;;;;4918867;29;20039;-94
2021/12/13 02:39:44;;;;;;;61.90;24.50;;;9.90;99.90;;;;;;4904607;29;20039;-94
2021/12/13 02:42:11;;;;;;;45.63;23.05;;;10.00;99.90;;;;;;4925450;29;20048;-94
2021/12/13 02:44:56;;;;;;;58.72;23.33;;;9.90;99.90;;;;;;4920881;29;20047;-94
2021/12/13 02:47:33;;;;;;;52.20;22.70;;;9.90;99.90;;;;;;4921883;29;20047;-95
2021/12/13 02:49:59;;;;;;;52.20;23.92;;;9.90;99.90;;;;;;4919998;29;20124;-95
2021/12/13 02:52:26;;;;;;;47.72;22.77;;;9.90;99.90;;;;;;4915227;29;20064;-95
2021/12/13 02:54:57;;;;;;;51.83;23.67;;;9.90;99.90;;;;;;4889881;29;20414;-95
2021/12/13 02:57:36;;;;;;;61.72;24.70;;;9.90;99.90;;;;;;4921910;29;20413;-94
2021/12/13 03:00:13;;;;;;;46.10;21.63;;;9.90;99.90;;;;;;4921603;29;20035;-95
2021/12/13 03:02:43;;;;;;;55.50;24.02;;;9.90;99.90;;;;;;4907225;29;20498;-95
2021/12/13 03:05:17;;;;;;;55.65;24.05;;;9.90;99.90;;;;;;4922609;29;20055;-95
2021/12/13 03:07:47;;;;;;;57.42;25.05;;;9.90;99.90;;;;;;4920751;29;20500;-95
2021/12/13 03:10:21;;;;;;;61.13;24.92;;;9.90;99.90;;;;;;4921847;29;20551;-94
2021/12/13 03:12:47;;;;;;;58.78;26.08;;;10.10;99.90;;;;;;4921115;29;20047;-94
2021/12/13 03:15:17;;;;;;;61.85;26.13;;;9.90;99.90;;;;;;4920911;29;20047;-94
2021/12/13 03:17:49;;;;;;;52.22;24.10;;;9.90;99.90;;;;;;4908569;29;20086;-94
2021/12/13 03:20:23;;;;;;;56.95;24.98;;;9.90;99.90;;;;;;4916527;29;20051;-95
2021/12/13 03:23:08;;;;;;;59.42;26.33;;;9.90;99.90;;;;;;4905369;29;20039;-94
2021/12/13 03:25:40;;;;;;;46.40;21.85;;;9.80;99.90;;;;;;4920870;29;20536;-95
2021/12/13 03:28:43;;;;;;;45.65;22.67;;;9.80;99.90;;;;;;4906117;29;20071;-95
2021/12/13 03:31:22;;;;;;;42.60;21.42;;;9.80;99.90;;;;;;4904644;29;20493;-93
2021/12/13 03:33:51;;;;;;;48.70;22.92;;;9.80;99.90;;;;;;4922791;29;20122;-93
2021/12/13 03:36:23;;;;;;;44.33;21.90;;;9.80;99.90;;;;;;4906746;29;20040;-94
2021/12/13 03:38:58;;;;;;;43.10;21.02;;;9.80;99.90;;;;;;4920203;29;20042;-93
2021/12/13 03:41:25;;;;;;;41.90;21.77;;;9.80;99.90;;;;;;4889142;29;20409;-95
2021/12/13 03:44:05;;;;;;;42.90;21.42;;;9.80;99.90;;;;;;4905027;29;20087;-94
2021/12/13 03:46:34;;;;;;;38.75;18.58;;;9.80;99.90;;;;;;4905340;29;20047;-95
2021/12/13 03:49:03;;;;;;;38.83;20.50;;;9.70;99.90;;;;;;4905544;29;20044;-94
2021/12/13 03:51:32;;;;;;;39.53;19.80;;;9.70;99.90;;;;;;4905560;29;20099;-93
2021/12/13 03:54:00;;;;;;;39.63;20.35;;;9.70;99.90;;;;;;4905502;29;20091;-94
2021/12/13 03:56:29;;;;;;;41.25;20.55;;;9.60;99.90;;;;;;4921242;29;20040;-95
2021/12/13 03:59:10;;;;;;;33.83;19.35;;;9.60;99.90;;;;;;4905764;29;20160;-93
2021/12/13 04:01:41;;;;;;;34.05;17.95;;;9.60;99.90;;;;;;4909956;29;20044;-94
2021/12/13 04:04:19;;;;;;;33.58;17.88;;;9.60;99.90;;;;;;4905863;29;20047;-94
2021/12/13 04:06:53;;;;;;;32.85;16.25;;;9.60;99.90;;;;;;4904102;29;20039;-94
2021/12/13 04:09:22;;;;;;;29.25;16.25;;;9.50;99.90;;;;;;4928839;29;20039;-93
2021/12/13 04:11:53;;;;;;;28.27;15.82;;;9.50;99.90;;;;;;4921126;29;20548;-93
2021/12/13 04:14:25;;;;;;;27.23;15.05;;;9.50;99.90;;;;;;4904481;29;20056;-94
2021/12/13 04:17:20;;;;;;;27.23;15.70;;;9.50;99.90;;;;;;4907104;29;20095;-94
2021/12/13 04:19:56;;;;;;;25.23;14.30;;;9.40;99.90;;;;;;4921090;29;20047;-93
2021/12/13 04:22:31;;;;;;;29.10;14.82;;;9.30;99.90;;;;;;4904092;29;20039;-94
2021/12/13 04:25:19;;;;;;;30.55;14.85;;;9.30;99.90;;;;;;4917913;29;20092;-95
2021/12/13 04:27:53;;;;;;;24.45;13.25;;;9.30;99.90;;;;;;4917129;29;20497;-95
2021/12/13 04:30:27;;;;;;;26.67;13.27;;;9.30;99.90;;;;;;4906564;29;20043;-94
2021/12/13 04:32:58;;;;;;;27.85;13.05;;;9.30;99.90;;;;;;4903789;29;20046;-94
2021/12/13 04:35:25;;;;;;;24.90;13.23;;;9.70;99.90;;;;;;4907532;29;20504;-95
2021/12/13 04:37:54;;;;;;;31.58;13.10;;;9.20;99.90;;;;;;4903253;29;20043;-92
2021/12/13 04:40:24;;;;;;;21.80;12.65;;;9.20;99.90;;;;;;4920202;29;20031;-93
2021/12/13 04:43:05;;;;;;;23.67;13.32;;;9.10;99.90;;;;;;4919004;29;20055;-95
2021/12/13 04:45:33;;;;;;;23.10;12.27;;;9.00;99.90;;;;;;4924644;29;20043;-92
2021/12/13 04:48:18;;;;;;;27.13;13.35;;;9.10;99.90;;;;;;4920606;29;20101;-93
2021/12/13 04:50:53;;;;;;;23.65;12.18;;;9.00;99.90;;;;;;4904537;29;20043;-92
2021/12/13 04:53:28;;;;;;;28.10;12.93;;;9.30;99.90;;;;;;4933764;29;20138;-93
2021/12/13 04:55:56;;;;;;;24.60;13.35;;;8.90;99.90;;;;;;4902540;29;20091;-94
2021/12/13 04:58:22;;;;;;;20.88;12.00;;;8.90;99.90;;;;;;4903662;29;20036;-94
2021/12/13 05:00:53;;;;;;;26.15;13.20;;;8.90;99.90;;;;;;4901336;29;20074;-94
2021/12/13 05:03:24;;;;;;;20.00;12.07;;;8.90;99.90;;;;;;4919976;29;20126;-93
2021/12/13 05:05:50;;;;;;;29.65;13.52;;;8.80;99.90;;;;;;4902976;29;20040;-94
2021/12/13 05:08:17;;;;;;;22.27;13.35;;;9.50;99.90;;;;;;4887885;29;20059;-94
2021/12/13 05:10:48;;;;;;;28.83;12.23;;;8.80;99.90;;;;;;4923442;29;20571;-94
2021/12/13 05:13:22;;;;;;;21.83;11.82;;;8.80;99.90;;;;;;4903800;29;20054;-94
2021/12/13 05:15:56;;;;;;;20.77;12.00;;;8.80;99.90;;;;;;4906215;29;20040;-93
2021/12/13 05:18:31;;;;;;;18.45;10.50;;;8.70;99.90;;;;;;4919293;29;20046;-94
2021/12/13 05:21:09;;;;;;;23.52;11.70;;;8.80;99.90;;;;;;4918756;29;20028;-94
2021/12/13 05:23:48;;;;;;;22.63;12.23;;;8.80;99.90;;;;;;4917186;29;20036;-94
2021/12/13 05:26:44;;;;;;;20.88;12.13;;;8.70;99.90;;;;;;4917077;29;20032;-94
2021/12/13 05:29:40;;;;;;;22.42;11.50;;;8.80;99.90;;;;;;4915920;29;20036;-95
2021/12/13 05:32:06;;;;;;;22.23;12.52;;;8.80;99.90;;;;;;4917707;29;20050;-93
2021/12/13 05:34:38;;;;;;;24.27;12.60;;;8.80;99.90;;;;;;4909125;29;20047;-95
2021/12/13 05:37:07;;;;;;;24.02;11.73;;;8.80;99.90;;;;;;4935661;29;20040;-94
2021/12/13 05:39:35;;;;;;;19.70;11.00;;;9.20;99.90;;;;;;4918413;29;20485;-93
2021/12/13 05:42:05;;;;;;;24.85;12.45;;;8.80;99.90;;;;;;4896182;29;20067;-93
2021/12/13 05:44:35;;;;;;;24.58;12.48;;;8.80;99.90;;;;;;4903823;29;20072;-92
2021/12/13 05:47:06;;;;;;;21.23;12.38;;;8.80;99.90;;;;;;4917708;29;20044;-95
2021/12/13 05:49:36;;;;;;;26.42;13.70;;;8.80;99.90;;;;;;4902253;29;20079;-95
2021/12/13 05:52:12;;;;;;;25.73;12.75;;;8.90;99.90;;;;;;4921566;29;20418;-94
2021/12/13 05:54:44;;;;;;;30.98;13.60;;;8.60;99.90;;;;;;4902582;29;20086;-94
2021/12/13 05:57:15;;;;;;;24.10;12.68;;;8.90;99.90;;;;;;4907344;29;20525;-93
2021/12/13 06:00:17;;;;;;;26.60;12.93;;;8.90;99.90;;;;;;4920663;29;20532;-94
2021/12/13 06:03:16;;;;;;;24.27;12.38;;;8.90;99.90;;;;;;4917398;29;20039;-93
2021/12/13 06:05:52;;;;;;;27.23;13.65;;;8.80;99.90;;;;;;4922830;29;20127;-92
2021/12/13 06:08:46;;;;;;;27.88;14.70;;;8.90;99.90;;;;;;4907157;29;20099;-94
2021/12/13 06:11:17;;;;;;;32.65;15.32;;;8.90;99.90;;;;;;4914290;29;20044;-93
2021/12/13 06:13:43;;;;;;;37.45;16.95;;;8.80;99.90;;;;;;4909512;29;20497;-93
2021/12/13 06:16:34;;;;;;;30.48;15.77;;;8.80;99.90;;;;;;4907089;29;20051;-93
2021/12/13 06:19:16;;;;;;;31.15;15.73;;;8.80;99.90;;;;;;4879525;29;20531;-93
2021/12/13 06:22:08;;;;;;;34.05;15.85;;;8.80;99.90;;;;;;4911513;29;20075;-95
2021/12/13 06:24:38;;;;;;;30.52;17.25;;;8.80;99.90;;;;;;4908771;29;20052;-93
2021/12/13 06:27:24;;;;;;;39.97;18.55;;;8.80;99.90;;;;;;4919367;29;20052;-93
2021/12/13 06:30:03;;;;;;;31.95;16.95;;;8.80;99.90;;;;;;4900684;29;20047;-92
2021/12/13 06:32:39;;;;;;;39.58;18.38;;;8.80;99.90;;;;;;4917857;29;20055;-93
2021/12/13 06:35:27;;;;;;;41.03;18.48;;;8.90;99.90;;;;;;4904379;29;20031;-94
2021/12/13 06:37:52;;;;;;;33.20;18.15;;;8.80;99.90;;;;;;4896791;29;20493;-93
2021/12/13 06:40:27;;;;;;;35.70;19.33;;;8.90;99.90;;;;;;4893955;29;20036;-93
2021/12/13 06:43:02;;;;;;;38.65;18.90;;;8.80;99.90;;;;;;4904239;29;20055;-95
2021/12/13 06:45:33;;;;;;;39.45;20.13;;;8.80;99.90;;;;;;4903473;29;20529;-92
2021/12/13 06:48:00;;;;;;;43.78;21.92;;;8.80;99.90;;;;;;4902522;29;20043;-94
2021/12/13 06:50:31;;;;;;;35.78;19.08;;;8.80;99.90;;;;;;4887803;29;20048;-94
2021/12/13 06:53:18;;;;;;;42.10;21.83;;;8.80;99.90;;;;;;4901469;29;20051;-91
2021/12/13 06:55:45;;;;;;;37.92;19.05;;;8.80;99.90;;;;;;4902780;29;20031;-93
2021/12/13 06:58:17;;;;;;;45.78;22.58;;;8.80;99.90;;;;;;4905857;29;20040;-94
2021/12/13 07:00:44;;;;;;;45.33;22.17;;;8.80;99.90;;;;;;4920555;29;20055;-95
2021/12/13 07:03:18;;;;;;;52.47;23.77;;;8.80;99.90;;;;;;4893161;29;20047;-95
2021/12/13 07:05:51;;;;;;;48.42;23.05;;;8.80;99.90;;;;;;4906367;29;20074;-95
2021/12/13 07:08:25;;;;;;;46.85;24.13;;;8.80;99.90;;;;;;4906403;29;20046;-95
2021/12/13 07:10:57;;;;;;;44.97;22.83;;;8.80;99.90;;;;;;4910844;29;20126;-94
2021/12/13 07:13:40;;;;;;;46.38;22.70;;;8.80;99.90;;;;;;4906304;29;20040;-96
2021/12/13 07:16:06;;;;;;;51.28;25.50;;;8.80;99.90;;;;;;4929393;29;20044;-96
2021/12/13 07:18:44;;;;;;;50.55;24.95;;;8.80;99.90;;;;;;4909108;29;20079;-94
2021/12/13 07:21:15;;;;;;;47.60;24.63;;;8.90;99.90;;;;;;4902790;29;20094;-93
2021/12/13 07:23:52;;;;;;;49.63;25.70;;;8.80;99.90;;;;;;4903310;29;20043;-96
2021/12/13 07:26:55;;;;;;;51.80;25.75;;;8.80;99.90;;;;;;4931700;29;20068;-95
2021/12/13 07:29:29;;;;;;;51.05;24.17;;;8.80;99.90;;;;;;4891518;29;20047;-96
2021/12/13 07:32:10;;;;;;;54.22;25.90;;;8.80;99.90;;;;;;4905433;29;20035;-94
2021/12/13 07:35:02;;;;;;;55.25;27.23;;;8.90;99.90;;;;;;4908153;29;20070;-91
2021/12/13 07:37:45;;;;;;;51.03;26.13;;;8.80;99.90;;;;;;4918341;29;20035;-94
2021/12/13 07:40:32;;;;;;;;;;;8.80;99.90;;;;;;4903761;29;20039;-94
2021/12/13 07:42:57;;;;;;;58.25;27.90;;;8.80;99.90;;;;;;4922636;29;19925;-95
2021/12/13 07:45:29;;;;;;;53.08;26.30;;;8.80;99.90;;;;;;4909983;29;20039;-96
2021/12/13 07:47:58;;;;;;;52.40;27.58;;;8.80;99.90;;;;;;4930177;29;20047;-95
2021/12/13 07:50:25;;;;;;;55.42;26.35;;;8.80;99.90;;;;;;4914185;29;20043;-95
2021/12/13 07:52:58;;;;;;;52.83;27.60;;;8.80;99.90;;;;;;4916586;29;20044;-96
2021/12/13 07:55:27;;;;;;;58.22;28.90;;;8.80;99.90;;;;;;4918524;29;20047;-95
2021/12/13 07:57:55;;;;;;;55.03;28.23;;;8.80;99.90;;;;;;4912124;29;20035;-93
2021/12/13 08:00:38;;;;;;;58.40;28.20;;;8.80;99.90;;;;;;4946132;29;20040;-93
2021/12/13 08:03:11;;;;;;;54.88;28.23;;;8.80;99.90;;;;;;4914153;29;20050;-94
2021/12/13 08:05:50;;;;;;;56.97;26.15;;;8.80;99.90;;;;;;4899981;29;20138;-93
2021/12/13 08:08:26;;;;;;;54.45;28.73;;;8.90;99.90;;;;;;4905086;29;20044;-94
2021/12/13 08:10:57;;;;;;;61.85;30.73;;;8.80;99.90;;;;;;4905056;29;20497;-93
2021/12/13 08:13:27;;;;;;;51.80;27.70;;;8.80;99.90;;;;;;4911151;29;20130;-92
2021/12/13 08:15:56;;;;;;;51.63;28.52;;;8.80;99.90;;;;;;4919407;29;20051;-92
2021/12/13 08:18:39;;;;;;;59.53;28.90;;;8.80;99.90;;;;;;4912080;29;20043;-91
2021/12/13 08:21:07;;;;;;;52.70;29.83;;;8.80;99.90;;;;;;4929277;29;20062;-91
2021/12/13 08:23:52;;;;;;;55.95;27.83;;;9.10;99.90;;;;;;4900365;29;20122;-91
2021/12/13 08:26:30;;;;;;;53.65;28.55;;;8.80;99.90;;;;;;4899684;29;20044;-92
2021/12/13 08:29:01;;;;;;;48.13;26.88;;;8.80;99.90;;;;;;4906135;29;20051;-91
2021/12/13 08:31:34;;;;;;;49.55;26.73;;;8.80;99.90;;;;;;4912769;29;20048;-92
2021/12/13 08:34:05;;;;;;;52.88;27.40;;;8.90;99.90;;;;;;4906268;29;20146;-92
2021/12/13 08:36:40;;;;;;;50.95;27.38;;;8.80;99.90;;;;;;4914920;29;20047;-92
2021/12/13 08:39:31;;;;;;;51.97;26.20;;;8.80;99.90;;;;;;4918701;29;20043;-91
2021/12/13 08:42:00;;;;;;;48.13;26.52;;;8.80;99.90;;;;;;4900220;29;20166;-91
2021/12/13 08:44:34;;;;;;;54.58;27.45;;;8.90;99.90;;;;;;4915343;29;20043;-91
2021/12/13 08:47:02;;;;;;;51.47;27.25;;;8.80;99.90;;;;;;4912539;29;20039;-92
2021/12/13 08:49:42;;;;;;;49.00;26.77;;;8.80;99.90;;;;;;4942581;29;20140;-92
2021/12/13 08:52:14;;;;;;;52.15;25.80;;;8.90;99.90;;;;;;4913777;29;20500;-94
2021/12/13 08:55:04;;;;;;;56.85;25.88;;;8.80;99.90;;;;;;4902390;29;20043;-94
2021/12/13 08:57:39;;;;;;;50.80;25.80;;;8.80;99.90;;;;;;4921169;29;20492;-92
2021/12/13 09:00:13;;;;;;;53.72;26.27;;;8.80;99.90;;;;;;4915634;29;20042;-92
2021/12/13 09:03:10;;;;;;;49.15;26.50;;;8.80;99.90;;;;;;4918595;29;20119;-93
2021/12/13 09:05:39;;;;;;;44.00;23.40;;;8.80;99.90;;;;;;4897872;29;20048;-91
2021/12/13 09:08:09;;;;;;;52.03;26.42;;;8.80;99.90;;;;;;4905299;29;20046;-89
2021/12/13 09:10:45;;;;;;;45.80;24.75;;;8.80;99.90;;;;;;4912915;29;20036;-92
2021/12/13 09:13:16;;;;;;;47.15;25.95;;;8.90;99.90;;;;;;4910808;29;20501;-93
2021/12/13 09:15:43;;;;;;;40.80;23.92;;;8.80;99.90;;;;;;4900662;29;20071;-91
2021/12/13 09:18:16;;;;;;;47.35;23.67;;;8.80;99.90;;;;;;4871508;29;20078;-91
2021/12/13 09:20:48;;;;;;;50.58;25.88;;;8.90;99.90;;;;;;4881322;29;20096;-92
2021/12/13 09:23:36;;;;;;;41.88;24.25;;;8.90;99.90;;;;;;4889061;29;20806;-92
2021/12/13 09:26:19;;;;;;;42.92;23.70;;;8.90;99.90;;;;;;4910399;29;20047;-93
2021/12/13 09:28:48;;;;;;;43.10;25.15;;;8.90;99.90;;;;;;4900822;29;20127;-92
2021/12/13 09:31:23;;;;;;;46.75;23.77;;;8.80;99.90;;;;;;4922646;29;20047;-92
2021/12/13 09:33:56;;;;;;;45.10;24.90;;;8.80;99.90;;;;;;4911422;29;20494;-92
2021/12/13 09:36:26;;;;;;;39.22;23.38;;;8.90;99.90;;;;;;4905867;29;20090;-93
2021/12/13 09:38:55;;;;;;;42.20;23.95;;;8.80;99.90;;;;;;4912444;29;20460;-93
2021/12/13 09:41:39;;;;;;;39.97;23.63;;;8.90;99.90;;;;;;4921528;29;20131;-92
2021/12/13 09:44:18;;;;;;;42.55;24.10;;;8.90;99.90;;;;;;4921469;29;20063;-92
2021/12/13 09:46:51;;;;;;;45.08;24.65;;;9.10;99.90;;;;;;4904208;29;20472;-94
2021/12/13 09:49:46;;;;;;;36.22;20.90;;;8.80;99.90;;;;;;4930384;29;20493;-94
2021/12/13 09:52:19;;;;;;;43.65;22.90;;;8.80;99.90;;;;;;4887793;29;20123;-93
2021/12/13 09:54:53;;;;;;;39.05;22.27;;;8.80;99.90;;;;;;4916635;29;20036;-95
2021/12/13 09:57:32;;;;;;;42.95;21.17;;;8.90;99.90;;;;;;4904884;29;20157;-94
2021/12/13 09:59:58;;;;;;;39.75;21.92;;;8.90;99.90;;;;;;4896725;29;20040;-93
2021/12/13 10:02:39;;;;;;;37.60;20.20;;;8.90;99.90;;;;;;4900583;29;20063;-95
2021/12/13 10:05:14;;;;;;;40.85;21.80;;;9.00;99.90;;;;;;4940064;29;20051;-95
2021/12/13 10:07:42;;;;;;;39.05;19.38;;;8.90;99.90;;;;;;4907443;29;20119;-94
2021/12/13 10:10:11;;;;;;;40.75;21.48;;;9.30;99.90;;;;;;4886057;29;20148;-94
2021/12/13 10:12:57;;;;;;;34.80;19.88;;;9.00;99.90;;;;;;4906999;29;20043;-95
2021/12/13 10:15:34;;;;;;;34.30;20.48;;;9.00;99.90;;;;;;4922787;29;20048;-93
2021/12/13 10:18:11;;;;;;;33.38;20.45;;;9.00;99.90;;;;;;4907691;29;20102;-94
2021/12/13 10:20:44;;;;;;;34.78;18.63;;;8.60;99.90;;;;;;4907062;29;20123;-94
2021/12/13 10:23:13;;;;;;;30.30;19.50;;;9.00;99.90;;;;;;4891339;29;20079;-95
2021/12/13 10:25:43;;;;;;;34.35;19.42;;;9.00;99.90;;;;;;4905440;29;20039;-94
2021/12/13 10:28:22;;;;;;;33.38;18.05;;;9.10;99.90;;;;;;4905152;29;20382;-95
2021/12/13 10:30:55;;;;;;;34.08;19.70;;;9.00;99.90;;;;;;4915192;29;20039;-94
2021/12/13 10:33:23;;;;;;;26.95;16.75;;;9.00;99.90;;;;;;4909025;29;20043;-92
2021/12/13 10:35:52;;;;;;;29.58;18.00;;;9.60;99.90;;;;;;4892395;29;20058;-94
2021/12/13 10:38:30;;;;;;;30.70;17.75;;;9.00;99.90;;;;;;4870191;29;20504;-94
2021/12/13 10:41:25;;;;;;;33.00;16.42;;;9.10;99.90;;;;;;4900090;29;20068;-94
2021/12/13 10:43:59;;;;;;;31.55;18.23;;;9.10;99.90;;;;;;4888315;29;20042;-94
2021/12/13 10:46:46;;;;;;;29.67;17.70;;;9.10;99.90;;;;;;4912963;29;20050;-93
2021/12/13 10:49:24;;;;;;;29.05;17.70;;;9.10;99.90;;;;;;4924696;29;20051;-93
2021/12/13 10:52:05;;;;;;;33.45;18.85;;;9.10;99.90;;;;;;4913383;29;20039;-95
2021/12/13 10:54:44;;;;;;;30.58;16.88;;;9.10;99.90;;;;;;4913099;29;20055;-94
2021/12/13 10:57:21;;;;;;;29.90;16.67;;;9.10;99.90;;;;;;4900091;29;20533;-92
2021/12/13 10:59:49;;;;;;;28.48;17.77;;;9.20;99.90;;;;;;4896315;29;20053;-93
2021/12/13 11:02:23;;;;;;;31.13;16.80;;;9.10;99.90;;;;;;4903422;29;20520;-91
2021/12/13 11:05:03;;;;;;;25.85;16.85;;;9.70;99.90;;;;;;4893406;29;20054;-91
2021/12/13 11:07:33;;;;;;;27.38;16.10;;;9.10;99.90;;;;;;4903493;29;20099;-92
2021/12/13 11:09:59;;;;;;;29.88;16.25;;;9.20;99.90;;;;;;4866282;29;20538;-92
2021/12/13 11:12:34;;;;;;;29.08;16.17;;;9.60;99.90;;;;;;4874244;29;20049;-91
2021/12/13 11:15:03;;;;;;;28.35;14.85;;;9.20;99.90;;;;;;4912230;29;20060;-91
2021/12/13 11:17:34;;;;;;;31.35;17.48;;;9.20;99.90;;;;;;4899611;29;20114;-94
2021/12/13 11:20:09;;;;;;;27.25;16.90;;;9.20;99.90;;;;;;4915179;29;20054;-92
2021/12/13 11:22:35;;;;;;;27.08;15.68;;;9.10;99.90;;;;;;4900212;29;20040;-92
2021/12/13 11:25:11;;;;;;;24.63;16.35;;;9.10;99.90;;;;;;4873688;29;20048;-93
2021/12/13 11:27:37;;;;;;;32.80;16.52;;;9.10;99.90;;;;;;4902721;29;20039;-93
2021/12/13 11:30:11;;;;;;;27.40;17.52;;;9.10;99.90;;;;;;4908691;29;20047;-91
2021/12/13 11:32:58;;;;;;;33.35;17.35;;;9.10;99.90;;;;;;4919750;29;20043;-91
2021/12/13 11:36:02;;;;;;;25.85;15.85;;;9.10;99.90;;;;;;4903994;29;20044;-92
2021/12/13 11:39:00;;;;;;;23.98;14.38;;;9.10;99.90;;;;;;4887159;29;20040;-92
2021/12/13 11:41:55;;;;;;;23.50;14.38;;;9.90;99.90;;;;;;4866035;29;20071;-91
2021/12/13 11:44:59;;;;;;;24.35;15.27;;;9.10;99.90;;;;;;4913877;29;20043;-92
2021/12/13 11:47:46;;;;;;;26.38;15.10;;;9.10;99.90;;;;;;4889057;29;20075;-91
2021/12/13 11:50:26;;;;;;;27.40;17.25;;;9.10;99.90;;;;;;4911758;29;20502;-91
2021/12/13 11:53:23;;;;;;;28.08;15.10;;;9.10;99.90;;;;;;4919842;29;20059;-91
2021/12/13 11:56:13;;;;;;;25.80;14.88;;;9.10;99.90;;;;;;4902314;29;20118;-91
2021/12/13 11:59:11;;;;;;;34.40;16.55;;;9.10;99.90;;;;;;4914904;29;20036;-91
2021/12/13 12:01:49;;;;;;;29.38;15.40;;;9.20;99.90;;;;;;4916912;29;20493;-91
2021/12/13 12:04:40;;;;;;;26.85;16.23;;;9.20;99.90;;;;;;4915696;29;20068;-91
2021/12/13 12:07:14;;;;;;;25.48;14.95;;;9.20;99.90;;;;;;4915690;29;20130;-91
2021/12/13 12:10:00;;;;;;;26.63;15.50;;;9.20;99.90;;;;;;4917565;29;20138;-92
2021/12/13 12:12:58;;;;;;;22.95;15.57;;;9.20;99.90;;;;;;4925177;29;20040;-91
2021/12/13 12:15:26;;;;;;;25.42;14.95;;;9.20;99.90;;;;;;4896070;29;20450;-91
2021/12/13 12:17:54;;;;;;;26.65;15.73;;;9.20;99.90;;;;;;4869501;29;20199;-92
2021/12/13 12:20:45;;;;;;;25.52;15.35;;;9.20;99.90;;;;;;4902849;29;20040;-92
2021/12/13 12:23:31;;;;;;;23.60;15.88;;;9.20;99.90;;;;;;4915093;29;20475;-94
2021/12/13 12:26:00;;;;;;;24.88;14.82;;;9.20;99.90;;;;;;4905116;29;20052;-93
2021/12/13 12:28:30;;;;;;;27.08;15.55;;;9.20;99.90;;;;;;4915052;29;20047;-93
2021/12/13 12:30:58;;;;;;;28.13;15.73;;;9.20;99.90;;;;;;4906454;29;20134;-90
2021/12/13 12:33:32;;;;;;;30.85;16.20;;;9.20;99.90;;;;;;4915912;29;20561;-92
2021/12/13 12:36:03;;;;;;;24.48;15.00;;;9.20;99.90;;;;;;4910285;29;20099;-92
2021/12/13 12:38:53;;;;;;;26.98;15.25;;;9.20;99.90;;;;;;4918944;29;20047;-93
2021/12/13 12:41:51;;;;;;;25.25;15.23;;;9.20;99.90;;;;;;4917351;29;20032;-96
2021/12/13 12:44:31;;;;;;;24.30;15.98;;;9.20;99.90;;;;;;4915667;29;20066;-93
2021/12/13 12:46:58;;;;;;;25.05;15.50;;;9.20;99.90;;;;;;4901028;29;20039;-96
2021/12/13 12:49:25;;;;;;;26.38;14.95;;;9.20;99.90;;;;;;4918311;29;20129;-96
2021/12/13 12:51:53;;;;;;;23.85;15.38;;;9.20;99.90;;;;;;4931922;29;20231;-96
2021/12/13 12:54:21;;;;;;;24.73;15.07;;;9.20;99.90;;;;;;4902187;29;20099;-96
2021/12/13 12:56:55;;;;;;;24.73;14.73;;;9.20;99.90;;;;;;4907974;29;20127;-96
2021/12/13 12:59:31;;;;;;;24.45;14.05;;;9.20;99.90;;;;;;4897765;29;20037;-94
2021/12/13 13:02:04;;;;;;;23.60;14.98;;;9.20;99.90;;;;;;4909529;29;20532;-91
2021/12/13 13:04:42;;;;;;;21.88;13.45;;;9.20;99.90;;;;;;4903342;29;20247;-92
2021/12/13 13:07:31;;;;;;;23.92;14.80;;;9.20;99.90;;;;;;4906180;29;20051;-91
2021/12/13 13:13:12;;;;;;;23.75;14.48;;;9.20;99.90;;;;;;4878074;29;20050;-90
2021/12/13 13:15:47;;;;;;;25.48;15.23;;;9.50;99.90;;;;;;4907439;29;20055;-91
2021/12/13 13:18:22;;;;;;;24.33;13.50;;;9.20;99.90;;;;;;4898405;29;20556;-90
2021/12/13 13:20:51;;;;;;;26.70;14.05;;;9.20;99.90;;;;;;4906599;29;20036;-91
2021/12/13 13:23:22;;;;;;;25.48;14.77;;;9.20;99.90;;;;;;4895394;29;20040;-91
2021/12/13 13:25:58;;;;;;;23.25;14.73;;;9.20;99.90;;;;;;4894287;29;20036;-91
2021/12/13 13:28:38;;;;;;;23.77;14.50;;;9.10;99.90;;;;;;4896795;29;20050;-91
2021/12/13 13:31:10;;;;;;;26.85;15.10;;;9.20;99.90;;;;;;4912092;29;20397;-91
2021/12/13 13:33:45;;;;;;;24.50;15.95;;;9.20;99.90;;;;;;4896764;29;20043;-91